Time;durP1;ratioP1;P1;durP2;ratioP2;P2;SDS_P1;SDS_P2;PMS_P1;PMS_P2;Temp;Humidity;BMP_temperature;BMP_pressure;BME280_temperature;BME280_humidity;BME280_pressure;Samples;Min_cycle;Max_cycle;Signal;HPM_P1;HPM_P2
2022/12/02 07:45:03;;;;;;;35.58;15.25;;;;;;;;;;6225350;23;20089;-81
2022/12/02 07:51:24;;;;;;;37.83;15.32;;;;;;;;;;6135656;23;20021;-81
2022/12/02 07:54:20;;;;;;;39.58;15.88;;;;;;;;;;6129820;23;20006;-81
2022/12/02 07:57:11;;;;;;;38.38;15.82;;;;;;;;;;6143938;23;20012;-81
2022/12/02 07:59:39;;;;;;;39.65;17.90;;;;;;;;;;6189662;23;20015;-81
2022/12/02 08:05:16;;;;;;;37.40;15.93;;;;;;;;;;6216802;23;20012;-83
2022/12/02 08:08:06;;;;;;;39.65;16.98;;;;;;;;;;6225551;23;20001;-81
2022/12/02 08:10:44;;;;;;;40.83;14.95;;;;;;;;;;6152082;23;20004;-81
2022/12/02 08:13:11;;;;;;;41.13;16.30;;;;;;;;;;6227249;23;20370;-81
2022/12/02 08:15:58;;;;;;;41.83;17.33;;;;;;;;;;6201548;23;20012;-81
2022/12/02 08:21:58;;;;;;;40.80;17.45;;;;;;;;;;6158587;23;20025;-82
2022/12/02 08:24:30;;;;;;;36.58;16.17;;;;;;;;;;6142082;23;20094;-81
2022/12/02 08:27:07;;;;;;;39.25;15.52;;;;;;;;;;6194948;23;20011;-81
2022/12/02 08:29:39;;;;;;;43.22;17.38;;;;;;;;;;6216400;23;20007;-81
2022/12/02 08:32:07;;;;;;;50.75;19.38;;;;;;;;;;6197038;23;20001;-81
2022/12/02 08:34:38;;;;;;;44.35;17.42;;;;;;;;;;6224648;23;20434;-81
2022/12/02 08:37:11;;;;;;;59.90;19.67;;;;;;;;;;6198153;23;20023;-82
2022/12/02 08:39:40;;;;;;;43.58;17.02;;;;;;;;;;6198556;23;20022;-81
2022/12/02 08:42:09;;;;;;;48.35;17.35;;;;;;;;;;6205194;23;20013;-81
2022/12/02 08:44:47;;;;;;;40.42;17.70;;;;;;;;;;6225828;23;20001;-81
2022/12/02 08:47:15;;;;;;;46.88;17.50;;;;;;;;;;6198564;23;20005;-81
2022/12/02 08:49:42;;;;;;;44.05;17.80;;;;;;;;;;6198162;23;20009;-81
2022/12/02 08:52:12;;;;;;;41.80;16.27;;;;;;;;;;6215878;23;20004;-81
2022/12/02 08:54:47;;;;;;;42.15;17.58;;;;;;;;;;6200736;23;20000;-82
2022/12/02 08:57:18;;;;;;;42.58;18.02;;;;;;;;;;6225471;23;20281;-80
2022/12/02 08:59:50;;;;;;;44.03;18.20;;;;;;;;;;6223617;23;20339;-81
2022/12/02 09:02:20;;;;;;;42.67;18.10;;;;;;;;;;6223216;23;20020;-81
2022/12/02 09:04:47;;;;;;;43.97;16.33;;;;;;;;;;6223981;23;20013;-80
2022/12/02 09:07:20;;;;;;;41.75;18.02;;;;;;;;;;6196423;23;20220;-81
2022/12/02 09:09:46;;;;;;;41.92;17.75;;;;;;;;;;6198171;23;20015;-81
2022/12/02 09:12:17;;;;;;;;;;;5.60;99.90;;;;;;6217062;23;20008;-81
2022/12/02 09:14:45;;;;;;;44.83;17.40;;;;;;;;;;6200135;23;19900;-81
2022/12/02 09:17:16;;;;;;;48.60;19.35;;;;;;;;;;6227840;23;20004;-81
2022/12/02 09:19:45;;;;;;;45.35;18.17;;;;;;;;;;6203051;23;20043;-81
2022/12/02 09:22:11;;;;;;;47.20;17.88;;;;;;;;;;6228534;23;20015;-81
2022/12/02 09:24:39;;;;;;;41.58;16.63;;;;;;;;;;6223371;23;20004;-81
2022/12/02 09:27:05;;;;;;;42.72;18.00;;;;;;;;;;6222911;23;20004;-81
2022/12/02 09:29:33;;;;;;;42.58;18.13;;;;;;;;;;6222372;23;20027;-81
2022/12/02 09:32:00;;;;;;;40.10;16.92;;;;;;;;;;6196181;23;20423;-81
2022/12/02 09:34:26;;;;;;;40.38;17.35;;;;;;;;;;6197654;23;20043;-81
2022/12/02 09:36:53;;;;;;;44.63;16.98;;;;;;;;;;6224246;23;20024;-81
2022/12/02 09:39:19;;;;;;;42.78;17.40;;;;;;;;;;6223340;23;20004;-81
2022/12/02 09:41:47;;;;;;;48.38;19.88;;;5.70;99.90;;;;;;6222802;23;20005;-81
2022/12/02 09:44:13;;;;;;;43.13;18.33;;;;;;;;;;6196862;23;20080;-80
2022/12/02 09:46:40;;;;;;;46.00;19.00;;;;;;;;;;6221624;23;20088;-80
2022/12/02 09:49:07;;;;;;;43.80;18.23;;;;;;;;;;6193795;23;20008;-81
2022/12/02 09:51:35;;;;;;;35.75;15.70;;;;;;;;;;6223058;23;20063;-81
2022/12/02 09:54:03;;;;;;;40.75;17.73;;;;;;;;;;6195646;23;20358;-81
2022/12/02 09:56:29;;;;;;;41.83;16.67;;;;;;;;;;6195684;23;20008;-81
2022/12/02 09:58:56;;;;;;;49.35;18.80;;;;;;;;;;6222443;23;20020;-81
2022/12/02 10:01:27;;;;;;;40.90;16.45;;;;;;;;;;6220269;23;20001;-81
2022/12/02 10:03:53;;;;;;;44.53;18.00;;;;;;;;;;6198579;23;20050;-81
2022/12/02 10:06:25;;;;;;;41.75;17.98;;;;;;;;;;6197442;23;20008;-81
2022/12/02 10:08:55;;;;;;;46.17;18.23;;;5.70;99.90;;;;;;6195962;23;20012;-81
2022/12/02 10:11:26;;;;;;;48.83;19.08;;;;;;;;;;6223922;23;20079;-81
2022/12/02 10:13:52;;;;;;;41.58;17.60;;;;;;;;;;6195936;23;20008;-81
2022/12/02 10:16:20;;;;;;;41.78;15.90;;;;;;;;;;6193902;23;20005;-82
2022/12/02 10:18:46;;;;;;;46.00;18.45;;;;;;;;;;6195684;23;19995;-81
2022/12/02 10:21:13;;;;;;;43.25;18.02;;;;;;;;;;6197282;23;20009;-81
2022/12/02 10:23:57;;;;;;;46.25;17.80;;;;;;;;;;6194242;23;20001;-81
2022/12/02 10:26:24;;;;;;;45.58;18.50;;;;;;;;;;6223847;23;20020;-80
2022/12/02 10:29:09;;;;;;;43.53;18.05;;;;;;;;;;6196907;23;20386;-81
2022/12/02 10:31:35;;;;;;;45.92;18.00;;;;;;;;;;6197283;23;20004;-80
2022/12/02 10:34:19;;;;;;;45.15;17.83;;;5.60;99.90;;;;;;6197170;23;20005;-81
2022/12/02 10:36:46;;;;;;;48.63;18.73;;;;;;;;;;6197087;23;20009;-81
2022/12/02 10:39:22;;;;;;;50.92;18.50;;;;;;;;;;6227542;23;20091;-81
2022/12/02 10:42:04;;;;;;;44.85;17.42;;;;;;;;;;6201759;23;20013;-81
2022/12/02 10:44:33;;;;;;;50.13;19.08;;;;;;;;;;6228923;23;20004;-82
2022/12/02 10:47:10;;;;;;;45.03;16.63;;;;;;;;;;6202612;23;20023;-82
2022/12/02 10:49:36;;;;;;;47.10;17.98;;;;;;;;;;6197757;23;20388;-81
2022/12/02 10:52:11;;;;;;;39.85;16.75;;;;;;;;;;6225256;23;20009;-81
2022/12/02 10:54:43;;;;;;;39.70;17.63;;;;;;;;;;6224119;23;20009;-82
2022/12/02 10:57:18;;;;;;;44.15;17.55;;;;;;;;;;6198162;23;20033;-82
2022/12/02 10:59:45;;;;;;;46.28;18.63;;;;;;;;;;6199482;23;20008;-81
2022/12/02 11:02:23;;;;;;;39.28;17.25;;;;;;;;;;6225842;23;20033;-81
2022/12/02 11:05:23;;;;;;;40.92;15.45;;;;;;;;;;6226505;23;20012;-80
2022/12/02 11:07:58;;;;;;;37.10;13.88;;;;;;;;;;6200666;23;20000;-82
2022/12/02 11:10:42;;;;;;;35.72;15.02;;;;;;;;;;6198793;23;19996;-82
2022/12/02 11:13:18;;;;;;;37.40;14.73;;;;;;;;;;6199402;23;20015;-82
2022/12/02 11:16:17;;;;;;;36.38;14.60;;;;;;;;;;6227317;23;19997;-81
2022/12/02 11:18:51;;;;;;;32.00;13.55;;;;;;;;;;6201099;23;20009;-82
2022/12/02 11:21:27;;;;;;;33.80;13.73;;;;;;;;;;6201305;23;20040;-81
2022/12/02 11:24:30;;;;;;;31.60;14.13;;;5.60;99.90;;;;;;6225999;23;20308;-82
2022/12/02 11:27:02;;;;;;;29.33;12.50;;;;;;;;;;6199478;23;20174;-81
2022/12/02 11:29:32;;;;;;;28.30;13.10;;;;;;;;;;6227005;23;20000;-81
2022/12/02 11:32:20;;;;;;;32.95;13.30;;;;;;;;;;6174873;23;20012;-81
2022/12/02 11:34:47;;;;;;;29.45;12.98;;;;;;;;;;6202501;23;20338;-82
2022/12/02 11:37:26;;;;;;;27.27;11.38;;;;;;;;;;6202690;23;20087;-81
2022/12/02 11:39:54;;;;;;;25.73;11.10;;;;;;;;;;6199488;23;20016;-81
2022/12/02 11:42:27;;;;;;;26.08;11.90;;;;;;;;;;6198599;23;20010;-81
2022/12/02 11:44:54;;;;;;;20.98;10.15;;;;;;;;;;6225613;23;20316;-83
2022/12/02 11:47:29;;;;;;;24.23;10.93;;;;;;;;;;6200747;23;20000;-82
2022/12/02 11:50:09;;;;;;;22.25;10.52;;;;;;;;;;6201805;23;20001;-80
2022/12/02 11:56:11;;;;;;;26.13;11.88;;;;;;;;;;6226674;23;20020;-81
2022/12/02 12:12:40;;;;;;;22.13;10.48;;;;;;;;;;6227714;23;20023;-81
2022/12/02 12:16:00;;;;;;;23.30;9.70;;;;;;;;;;6106474;23;20042;-82
2022/12/02 12:38:12;;;;;;;18.35;9.07;;;;;;;;;;6095977;23;20061;-82
2022/12/02 12:40:53;;;;;;;16.27;8.13;;;;;;;;;;6086993;23;20024;-81
2022/12/02 12:43:52;;;;;;;18.23;8.30;;;;;;;;;;6187067;23;20008;-82
2022/12/02 12:59:39;;;;;;;13.05;6.75;;;;;;;;;;6224581;23;20139;-82
2022/12/02 13:02:31;;;;;;;14.30;7.10;;;;;;;;;;6223640;23;20016;-81
2022/12/02 13:05:12;;;;;;;14.48;7.63;;;;;;;;;;6222617;23;20023;-81
2022/12/02 13:08:17;;;;;;;13.38;6.65;;;;;;;;;;6222777;23;20008;-82
2022/12/02 13:21:18;;;;;;;10.57;6.05;;;;;;;;;;6045304;23;20047;-81
2022/12/02 13:24:21;;;;;;;14.20;6.77;;;;;;;;;;6160163;23;20008;-81
2022/12/02 13:27:44;;;;;;;15.27;6.80;;;5.80;99.90;;;;;;6130727;23;20035;-81
2022/12/02 13:34:28;;;;;;;9.40;5.07;;;;;;;;;;6081962;23;20112;-81
2022/12/02 13:36:55;;;;;;;11.18;5.85;;;;;;;;;;6074415;23;20003;-81
2022/12/02 13:39:23;;;;;;;9.75;5.05;;;;;;;;;;6159277;23;20007;-82
2022/12/02 13:41:49;;;;;;;11.60;5.75;;;;;;;;;;6204743;23;20009;-82
2022/12/02 13:44:17;;;;;;;10.75;5.53;;;;;;;;;;6233816;23;20008;-81
2022/12/02 13:46:44;;;;;;;8.00;4.97;;;;;;;;;;6206897;23;20001;-82
2022/12/02 13:49:12;;;;;;;8.45;4.95;;;;;;;;;;6229924;23;20020;-83
2022/12/02 13:51:39;;;;;;;11.30;5.47;;;;;;;;;;6205278;23;20012;-82
2022/12/02 13:54:06;;;;;;;11.38;5.70;;;;;;;;;;6203545;23;20009;-82
2022/12/02 13:56:33;;;;;;;14.60;5.78;;;;;;;;;;6232593;23;20009;-82
2022/12/02 13:58:59;;;;;;;11.88;5.60;;;;;;;;;;6231524;23;20024;-82
2022/12/02 14:01:27;;;;;;;11.25;5.80;;;;;;;;;;6229473;23;20004;-81
2022/12/02 14:03:54;;;;;;;10.82;5.63;;;;;;;;;;6229644;23;20005;-82
2022/12/02 14:06:20;;;;;;;8.80;5.13;;;;;;;;;;6203619;23;20059;-82
2022/12/02 14:09:04;;;;;;;11.57;5.60;;;;;;;;;;6201331;23;20510;-82
2022/12/02 14:11:30;;;;;;;9.32;5.32;;;;;;;;;;6220522;23;20016;-81
2022/12/02 14:13:57;;;;;;;10.05;5.32;;;;;;;;;;6199696;23;20008;-82
2022/12/02 14:16:23;;;;;;;8.65;4.60;;;;;;;;;;6200954;23;20107;-82
2022/12/02 14:18:54;;;;;;;10.88;5.43;;;;;;;;;;6201074;23;20030;-82
2022/12/02 14:21:52;;;;;;;11.20;5.50;;;;;;;;;;6228483;23;20004;-83
2022/12/02 14:24:36;;;;;;;12.57;6.68;;;;;;;;;;6228508;23;20005;-82
2022/12/02 14:27:02;;;;;;;11.20;5.57;;;;;;;;;;6203306;23;20004;-81
2022/12/02 14:29:29;;;;;;;10.93;5.47;;;;;;;;;;6231346;23;20736;-82
2022/12/02 14:31:56;;;;;;;8.95;4.47;;;;;;;;;;6205724;23;20008;-82
2022/12/02 14:34:22;;;;;;;12.15;5.00;;;;;;;;;;6205890;23;20096;-82
2022/12/02 14:36:49;;;;;;;8.60;4.97;;;;;;;;;;6199225;23;20020;-82
2022/12/02 14:39:15;;;;;;;7.60;4.30;;;;;;;;;;6196897;23;20000;-81
2022/12/02 14:41:42;;;;;;;10.02;4.95;;;;;;;;;;6196348;23;20076;-82
2022/12/02 14:44:10;;;;;;;10.60;4.97;;;;;;;;;;6224339;23;20004;-81
2022/12/02 14:46:36;;;;;;;8.68;4.93;;;;;;;;;;6199470;23;20088;-81
2022/12/02 14:49:03;;;;;;;10.00;5.45;;;;;;;;;;6197253;23;20087;-81
2022/12/02 14:51:29;;;;;;;8.23;4.40;;;;;;;;;;6223586;23;20015;-82
2022/12/02 14:53:58;;;;;;;8.95;4.88;;;;;;;;;;6222877;23;20008;-82
2022/12/02 14:56:24;;;;;;;9.15;4.90;;;;;;;;;;6199992;23;20074;-82
2022/12/02 14:58:50;;;;;;;8.90;4.80;;;;;;;;;;6194082;23;20009;-81
2022/12/02 15:01:18;;;;;;;8.13;4.60;;;;;;;;;;6219562;23;20017;-81
2022/12/02 15:03:44;;;;;;;9.80;4.50;;;;;;;;;;6220378;23;20029;-81
2022/12/02 15:06:10;;;;;;;10.73;4.72;;;;;;;;;;6220966;23;20362;-81
2022/12/02 15:08:36;;;;;;;10.07;4.60;;;;;;;;;;6194519;23;20015;-81
2022/12/02 15:11:03;;;;;;;8.65;4.25;;;;;;;;;;6222930;23;20024;-81
2022/12/02 15:13:29;;;;;;;8.30;4.45;;;;;;;;;;6222585;23;20008;-81
2022/12/02 15:15:55;;;;;;;8.30;4.40;;;;;;;;;;6194250;23;20004;-81
2022/12/02 15:18:21;;;;;;;7.38;4.07;;;;;;;;;;6194653;23;20088;-81
2022/12/02 15:20:48;;;;;;;8.85;4.55;;;;;;;;;;6226790;23;20015;-81
2022/12/02 15:23:17;;;;;;;8.02;4.30;;;;;;;;;;6222662;23;20000;-81
2022/12/02 15:25:43;;;;;;;8.13;4.45;;;;;;;;;;6194595;23;20005;-81
2022/12/02 15:28:09;;;;;;;8.38;4.45;;;;;;;;;;6195529;23;20020;-81
2022/12/02 15:30:35;;;;;;;8.00;4.35;;;;;;;;;;6221823;23;20011;-81
2022/12/02 15:33:01;;;;;;;8.43;4.20;;;;;;;;;;6220463;23;20012;-81
2022/12/02 15:35:27;;;;;;;7.40;4.28;;;;;;;;;;6195356;23;20027;-81
2022/12/02 15:37:53;;;;;;;8.82;3.75;;;;;;;;;;6195000;23;20024;-81
2022/12/02 15:40:20;;;;;;;8.27;4.43;;;;;;;;;;6195433;23;20004;-80
2022/12/02 15:42:46;;;;;;;7.00;4.13;;;;;;;;;;6221962;23;20000;-80
2022/12/02 15:45:12;;;;;;;6.32;3.88;;;;;;;;;;6222253;23;20058;-81
2022/12/02 15:47:38;;;;;;;7.70;4.20;;;;;;;;;;6222981;23;19997;-83
2022/12/02 15:50:04;;;;;;;9.38;4.85;;;;;;;;;;6195564;23;20001;-81
2022/12/02 15:52:31;;;;;;;8.55;4.40;;;;;;;;;;6221063;23;20004;-81
2022/12/02 15:54:57;;;;;;;9.55;4.65;;;;;;;;;;6222403;23;20358;-81
2022/12/02 15:57:23;;;;;;;7.13;4.25;;;;;;;;;;6197058;23;20013;-81
2022/12/02 15:59:49;;;;;;;8.43;4.30;;;;;;;;;;6204090;23;20011;-82
2022/12/02 16:02:16;;;;;;;8.52;4.50;;;;;;;;;;6229913;23;20015;-81
2022/12/02 16:04:42;;;;;;;7.80;4.32;;;;;;;;;;6206395;23;20036;-81
2022/12/02 16:07:14;;;;;;;7.50;3.88;;;;;;;;;;6227832;23;20420;-81
2022/12/02 16:09:40;;;;;;;7.53;4.55;;;;;;;;;;6194803;23;20103;-83
2022/12/02 16:12:07;;;;;;;6.93;4.30;;;;;;;;;;6198061;23;20004;-80
2022/12/02 16:14:33;;;;;;;7.00;4.30;;;;;;;;;;6222007;23;20343;-80
2022/12/02 16:17:00;;;;;;;7.47;4.57;;;;;;;;;;6221904;23;20324;-80
2022/12/02 16:19:26;;;;;;;8.65;4.65;;;;;;;;;;6222538;23;20000;-81
2022/12/02 16:21:52;;;;;;;9.73;4.90;;;;;;;;;;6194723;23;20005;-81
2022/12/02 16:24:21;;;;;;;9.18;5.35;;;;;;;;;;6195350;23;20158;-81
2022/12/02 16:26:48;;;;;;;8.60;5.00;;;;;;;;;;6194007;23;20005;-81
2022/12/02 16:29:14;;;;;;;7.15;4.60;;;;;;;;;;6221021;23;20379;-80
2022/12/02 16:31:40;;;;;;;8.68;5.63;;;;;;;;;;6195644;23;20087;-80
2022/12/02 16:34:06;;;;;;;7.25;4.50;;;;;;;;;;6226926;23;19995;-82
2022/12/02 16:36:32;;;;;;;9.32;5.18;;;;;;;;;;6232326;23;20017;-82
2022/12/02 16:38:58;;;;;;;8.25;5.20;;;;;;;;;;6193860;23;20039;-81
2022/12/02 16:41:26;;;;;;;8.23;5.20;;;;;;;;;;6194285;23;20016;-80
2022/12/02 16:44:00;;;;;;;9.55;5.43;;;;;;;;;;6194930;23;20001;-81
2022/12/02 16:46:26;;;;;;;7.72;4.70;;;;;;;;;;6193218;23;20017;-80
2022/12/02 16:48:52;;;;;;;8.10;4.43;;;;;;;;;;6222633;23;20004;-81
2022/12/02 16:51:19;;;;;;;7.90;4.55;;;;;;;;;;6195296;23;20055;-82
2022/12/02 16:53:45;;;;;;;9.32;5.10;;;;;;;;;;6197592;23;20056;-81
2022/12/02 16:56:12;;;;;;;7.75;4.68;;;;;;;;;;6196906;23;20027;-83
2022/12/02 16:58:39;;;;;;;7.03;4.78;;;;;;;;;;6224047;23;20009;-81
2022/12/02 17:01:06;;;;;;;8.20;4.55;;;;;;;;;;6223544;23;20012;-81
2022/12/02 17:03:33;;;;;;;8.95;4.50;;;;;;;;;;6194720;23;20012;-81
2022/12/02 17:06:00;;;;;;;7.75;4.28;;;;;;;;;;6195370;23;20011;-81
2022/12/02 17:08:26;;;;;;;8.45;4.35;;;;;;;;;;6220745;23;20000;-81
2022/12/02 17:10:53;;;;;;;6.80;3.97;;;;;;;;;;6195000;23;20015;-81
2022/12/02 17:13:19;;;;;;;11.23;6.38;;;;;;;;;;6221970;23;20005;-81
2022/12/02 17:15:45;;;;;;;7.63;4.60;;;;;;;;;;6220895;23;20031;-81
2022/12/02 17:18:12;;;;;;;7.10;4.75;;;;;;;;;;6221643;23;20020;-81
2022/12/02 17:20:38;;;;;;;6.88;3.90;;;;;;;;;;6193471;23;20316;-81
2022/12/02 17:23:04;;;;;;;6.57;4.03;;;;;;;;;;6220657;23;20008;-81
2022/12/02 17:25:30;;;;;;;6.68;4.05;;;;;;;;;;6220897;23;20007;-81
2022/12/02 17:27:57;;;;;;;8.32;4.63;;;;;;;;;;6194480;23;20004;-81
2022/12/02 17:30:23;;;;;;;8.32;4.40;;;;;;;;;;6194554;23;20084;-81
2022/12/02 17:32:49;;;;;;;10.27;4.80;;;;;;;;;;6193838;23;20462;-81
2022/12/02 17:35:15;;;;;;;6.90;4.30;;;;;;;;;;6193668;23;20008;-82
2022/12/02 17:37:41;;;;;;;8.45;4.95;;;;;;;;;;6194854;23;20004;-81
2022/12/02 17:40:08;;;;;;;7.25;4.50;;;;;;;;;;6219720;23;20055;-81
2022/12/02 17:42:37;;;;;;;8.13;4.95;;;;;;;;;;6193837;23;20004;-81
2022/12/02 17:45:04;;;;;;;8.30;4.95;;;;;;;;;;6193909;23;20454;-81
2022/12/02 17:47:30;;;;;;;8.02;4.93;;;;;;;;;;6194374;23;20005;-81
2022/12/02 17:50:47;;;;;;;7.70;4.47;;;;;;;;;;6195525;23;19996;-81
2022/12/02 17:53:13;;;;;;;7.35;4.18;;;;;;;;;;6209021;23;20000;-81
2022/12/02 17:56:11;;;;;;;9.23;4.90;;;;;;;;;;6220210;23;20005;-82
2022/12/02 17:58:58;;;;;;;10.60;4.72;;;;;;;;;;6177250;23;20011;-82
2022/12/02 18:01:29;;;;;;;7.43;4.82;;;;;;;;;;6209815;23;20044;-83
2022/12/02 18:04:06;;;;;;;;;;;;;;;;;;;;;
2022/12/02 18:06:45;;;;;;;8.27;5.10;;;;;;;;;;6220429;23;20024;-81
2022/12/02 18:09:31;;;;;;;;;;;;;;;;;;;;;
2022/12/02 18:12:00;;;;;;;10.60;5.18;;;;;;;;;;6222004;23;20028;-81
2022/12/02 18:14:34;;;;;;;9.98;5.15;;;;;;;;;;6195798;23;20005;-81
2022/12/02 18:17:30;;;;;;;9.50;5.13;;;;;;;;;;6193587;23;20399;-81
2022/12/02 18:20:08;;;;;;;8.73;4.95;;;;;;;;;;6190140;23;20487;-81
2022/12/02 18:22:45;;;;;;;8.60;5.00;;;;;;;;;;6196370;23;20200;-82
2022/12/02 18:25:24;;;;;;;;;;;;;;;;;;;;;
2022/12/02 18:27:53;;;;;;;8.45;4.63;;;;;;;;;;6220453;23;20031;-81
2022/12/02 18:30:19;;;;;;;9.18;4.90;;;;;;;;;;6191481;23;20091;-81
2022/12/02 18:32:48;;;;;;;8.23;4.90;;;;;;;;;;6192982;23;20016;-81
2022/12/02 18:35:25;;;;;;;8.02;5.32;;;;;;;;;;6196663;23;20013;-81
2022/12/02 18:38:00;;;;;;;10.30;5.25;;;;;;;;;;6224657;23;20013;-80
2022/12/02 18:40:38;;;;;;;8.15;4.97;;;;;;;;;;6198486;23;20004;-81
2022/12/02 18:43:07;;;;;;;8.63;5.20;;;;;;;;;;6226374;23;20005;-82
2022/12/02 18:45:41;;;;;;;9.23;5.55;;;;;;;;;;6200548;23;20009;-82
2022/12/02 18:48:07;;;;;;;9.05;5.90;;;;;;;;;;6199618;23;20016;-82
2022/12/02 18:51:05;;;;;;;11.55;5.72;;;;;;;;;;6200816;23;20032;-82
2022/12/02 18:54:02;;;;;;;;;;;;;;;;;;;;;
2022/12/02 18:57:02;;;;;;;;;;;;;;;;;;;;;
2022/12/02 18:59:36;;;;;;;8.15;5.45;;;;;;;;;;6227040;23;20028;-81
2022/12/02 19:02:35;;;;;;;;;;;;;;;;;;;;;
2022/12/02 19:05:28;;;;;;;9.05;5.53;;;;;;;;;;6222037;23;20020;-82
2022/12/02 19:08:03;;;;;;;8.18;5.10;;;;;;;;;;6197917;23;20423;-81
2022/12/02 19:11:02;;;;;;;10.55;5.57;;;;;;;;;;6199294;23;20084;-82
2022/12/02 19:14:10;;;;;;;9.52;5.57;;;;;;;;;;6200897;23;20131;-81
2022/12/02 19:16:49;;;;;;;10.10;5.55;;;;;;;;;;6193751;23;20041;-82
2022/12/02 19:19:42;;;;;;;10.13;6.13;;;;;;;;;;6168752;23;20127;-81
2022/12/02 19:22:24;;;;;;;;;;;;;;;;;;;;;
2022/12/02 19:29:02;;;;;;;;;;;;;;;;;;;;;
2022/12/02 19:34:07;;;;;;;11.88;6.47;;;;;;;;;;6134402;23;20010;-81
2022/12/02 19:36:36;;;;;;;11.48;6.50;;;;;;;;;;6165089;23;20013;-81
2022/12/02 21:17:07;;;;;;;18.17;8.90;;;;;;;;;;6213989;23;20036;-81
2022/12/02 21:19:52;;;;;;;;;;;;;;;;;;;;;
2022/12/02 21:33:00;;;;;;;16.75;8.55;;;3.90;99.90;;;;;;6136507;23;20033;-80
2022/12/02 21:35:48;;;;;;;15.63;9.13;;;;;;;;;;5998200;23;20474;-80
2022/12/02 21:42:04;;;;;;;15.55;7.78;;;;;;;;;;6134540;23;20064;-80
2022/12/02 21:48:25;;;;;;;14.57;7.50;;;;;;;;;;6019840;23;20055;-81
2022/12/02 21:50:53;;;;;;;13.55;7.78;;;;;;;;;;5995788;23;20027;-80
2022/12/02 21:53:45;;;;;;;14.70;8.48;;;;;;;;;;6155740;23;19996;-80
2022/12/02 21:57:06;;;;;;;13.93;7.90;;;;;;;;;;6202519;23;20055;-78
2022/12/02 21:59:45;;;;;;;13.68;7.70;;;;;;;;;;6223455;23;20046;-80
2022/12/02 22:02:55;;;;;;;13.35;7.40;;;;;;;;;;6183293;23;20014;-80
2022/12/02 22:40:47;;;;;;;;;;;3.80;99.90;;;;;;6191617;23;20020;-81
2022/12/02 22:53:20;;;;;;;11.10;6.72;;;3.70;99.90;;;;;;6074898;23;20013;-81
2022/12/02 23:03:09;;;;;;;11.00;6.45;;;;;;;;;;6195714;23;20020;-81
2022/12/02 23:09:28;;;;;;;12.52;6.85;;;;;;;;;;6134755;23;20017;-80
2022/12/02 23:16:12;;;;;;;11.50;6.32;;;4.00;99.90;;;;;;6047279;23;20428;-81
2022/12/02 23:35:53;;;;;;;9.13;5.78;;;;;;;;;;5980381;23;20014;-81
2022/12/02 23:39:31;;;;;;;9.90;6.40;;;3.90;99.90;;;;;;5959273;24;20012;-81
2022/12/02 23:58:15;;;;;;;8.60;5.45;;;;;;;;;;6136241;23;20079;-81
